sensor_id;sensor_type;location;lat;lon;timestamp;temperature;humidity
32614;DHT22;19031;51.400;6.770;2023-08-07T00:01:46;13.50;99.90
32614;DHT22;19031;51.400;6.770;2023-08-07T00:04:12;13.50;99.90
32614;DHT22;19031;51.400;6.770;2023-08-07T00:06:37;13.50;99.90
32614;DHT22;19031;51.400;6.770;2023-08-07T00:09:03;13.50;99.90
32614;DHT22;19031;51.400;6.770;2023-08-07T00:11:29;13.60;99.90
32614;DHT22;19031;51.400;6.770;2023-08-07T00:13:55;13.50;99.90
32614;DHT22;19031;51.400;6.770;2023-08-07T00:16:20;13.50;99.90
32614;DHT22;19031;51.400;6.770;2023-08-07T00:18:46;13.60;99.90
32614;DHT22;19031;51.400;6.770;2023-08-07T00:21:12;13.60;99.90
32614;DHT22;19031;51.400;6.770;2023-08-07T00:23:37;13.60;99.90
32614;DHT22;19031;51.400;6.770;2023-08-07T00:26:03;13.60;99.90
32614;DHT22;19031;51.400;6.770;2023-08-07T00:28:28;13.70;99.90
32614;DHT22;19031;51.400;6.770;2023-08-07T00:30:55;13.60;99.90
32614;DHT22;19031;51.400;6.770;2023-08-07T00:33:21;13.70;99.90
32614;DHT22;19031;51.400;6.770;2023-08-07T00:35:46;13.60;99.90
32614;DHT22;19031;51.400;6.770;2023-08-07T00:38:12;13.60;99.90
32614;DHT22;19031;51.400;6.770;2023-08-07T00:40:41;13.70;99.90
32614;DHT22;19031;51.400;6.770;2023-08-07T00:43:07;13.60;99.90
32614;DHT22;19031;51.400;6.770;2023-08-07T00:45:36;13.60;99.90
32614;DHT22;19031;51.400;6.770;2023-08-07T00:48:03;13.70;99.90
32614;DHT22;19031;51.400;6.770;2023-08-07T00:50:29;13.70;99.90
32614;DHT22;19031;51.400;6.770;2023-08-07T00:52:55;13.70;99.90
32614;DHT22;19031;51.400;6.770;2023-08-07T00:55:21;13.70;99.90
32614;DHT22;19031;51.400;6.770;2023-08-07T00:57:47;13.70;99.90
32614;DHT22;19031;51.400;6.770;2023-08-07T01:00:14;13.60;99.90
32614;DHT22;19031;51.400;6.770;2023-08-07T01:02:40;13.70;99.90
32614;DHT22;19031;51.400;6.770;2023-08-07T01:05:05;13.70;99.90
32614;DHT22;19031;51.400;6.770;2023-08-07T01:07:31;13.60;99.90
32614;DHT22;19031;51.400;6.770;2023-08-07T01:09:57;13.60;99.90
32614;DHT22;19031;51.400;6.770;2023-08-07T01:12:34;13.60;99.90
32614;DHT22;19031;51.400;6.770;2023-08-07T01:15:12;13.60;99.90
32614;DHT22;19031;51.400;6.770;2023-08-07T01:17:41;13.60;99.90
32614;DHT22;19031;51.400;6.770;2023-08-07T01:20:07;13.60;99.90
32614;DHT22;19031;51.400;6.770;2023-08-07T01:22:33;13.60;99.90
32614;DHT22;19031;51.400;6.770;2023-08-07T01:24:59;13.60;99.90
32614;DHT22;19031;51.400;6.770;2023-08-07T01:30:27;13.60;99.90
32614;DHT22;19031;51.400;6.770;2023-08-07T01:35:24;13.50;99.90
32614;DHT22;19031;51.400;6.770;2023-08-07T01:37:52;13.50;99.90
32614;DHT22;19031;51.400;6.770;2023-08-07T01:40:20;13.50;99.90
32614;DHT22;19031;51.400;6.770;2023-08-07T01:42:46;13.40;99.90
32614;DHT22;19031;51.400;6.770;2023-08-07T01:45:25;13.40;99.90
32614;DHT22;19031;51.400;6.770;2023-08-07T01:48:00;13.30;99.90
32614;DHT22;19031;51.400;6.770;2023-08-07T01:50:25;13.40;99.90
32614;DHT22;19031;51.400;6.770;2023-08-07T01:52:52;13.50;99.90
32614;DHT22;19031;51.400;6.770;2023-08-07T01:55:19;13.40;99.90
32614;DHT22;19031;51.400;6.770;2023-08-07T01:57:45;13.40;99.90
32614;DHT22;19031;51.400;6.770;2023-08-07T02:00:11;13.40;99.90
32614;DHT22;19031;51.400;6.770;2023-08-07T02:02:37;13.40;99.90
32614;DHT22;19031;51.400;6.770;2023-08-07T02:05:10;13.30;99.90
32614;DHT22;19031;51.400;6.770;2023-08-07T02:07:36;13.30;99.90
32614;DHT22;19031;51.400;6.770;2023-08-07T02:10:01;13.30;99.90
32614;DHT22;19031;51.400;6.770;2023-08-07T02:12:27;13.30;99.90
32614;DHT22;19031;51.400;6.770;2023-08-07T02:14:55;13.40;99.90
32614;DHT22;19031;51.400;6.770;2023-08-07T02:17:21;13.30;99.90
32614;DHT22;19031;51.400;6.770;2023-08-07T02:19:48;13.30;99.90
32614;DHT22;19031;51.400;6.770;2023-08-07T02:22:16;13.30;99.90
32614;DHT22;19031;51.400;6.770;2023-08-07T02:24:41;13.30;99.90
32614;DHT22;19031;51.400;6.770;2023-08-07T02:27:07;13.30;99.90
32614;DHT22;19031;51.400;6.770;2023-08-07T02:29:33;13.30;99.90
32614;DHT22;19031;51.400;6.770;2023-08-07T02:32:01;13.30;99.90
32614;DHT22;19031;51.400;6.770;2023-08-07T02:34:31;13.30;99.90
32614;DHT22;19031;51.400;6.770;2023-08-07T02:36:57;13.20;99.90
32614;DHT22;19031;51.400;6.770;2023-08-07T02:39:24;13.30;99.90
32614;DHT22;19031;51.400;6.770;2023-08-07T02:41:50;13.30;99.90
32614;DHT22;19031;51.400;6.770;2023-08-07T02:44:18;13.30;99.90
32614;DHT22;19031;51.400;6.770;2023-08-07T02:46:45;13.30;99.90
32614;DHT22;19031;51.400;6.770;2023-08-07T02:49:11;13.20;99.90
32614;DHT22;19031;51.400;6.770;2023-08-07T02:51:36;13.20;99.90
32614;DHT22;19031;51.400;6.770;2023-08-07T02:54:02;13.30;99.90
32614;DHT22;19031;51.400;6.770;2023-08-07T02:56:30;13.30;99.90
32614;DHT22;19031;51.400;6.770;2023-08-07T02:58:56;13.30;99.90
32614;DHT22;19031;51.400;6.770;2023-08-07T03:01:26;13.30;99.90
32614;DHT22;19031;51.400;6.770;2023-08-07T03:03:53;13.20;99.90
32614;DHT22;19031;51.400;6.770;2023-08-07T03:06:18;13.20;99.90
32614;DHT22;19031;51.400;6.770;2023-08-07T03:08:46;13.30;99.90
32614;DHT22;19031;51.400;6.770;2023-08-07T03:11:12;13.20;99.90
32614;DHT22;19031;51.400;6.770;2023-08-07T03:13:37;13.30;99.90
32614;DHT22;19031;51.400;6.770;2023-08-07T03:16:05;13.20;99.90
32614;DHT22;19031;51.400;6.770;2023-08-07T03:18:32;13.30;99.90
32614;DHT22;19031;51.400;6.770;2023-08-07T03:20:57;13.30;99.90
32614;DHT22;19031;51.400;6.770;2023-08-07T03:23:27;13.30;99.90
32614;DHT22;19031;51.400;6.770;2023-08-07T03:26:09;13.20;99.90
32614;DHT22;19031;51.400;6.770;2023-08-07T03:28:35;13.20;99.90
32614;DHT22;19031;51.400;6.770;2023-08-07T03:31:02;13.40;99.90
32614;DHT22;19031;51.400;6.770;2023-08-07T03:33:27;13.20;99.90
32614;DHT22;19031;51.400;6.770;2023-08-07T03:35:56;13.30;99.90
32614;DHT22;19031;51.400;6.770;2023-08-07T03:38:22;13.20;99.90
32614;DHT22;19031;51.400;6.770;2023-08-07T03:40:47;13.30;99.90
32614;DHT22;19031;51.400;6.770;2023-08-07T03:43:26;13.30;99.90
32614;DHT22;19031;51.400;6.770;2023-08-07T03:45:57;13.20;99.90
32614;DHT22;19031;51.400;6.770;2023-08-07T03:48:30;13.30;99.90
32614;DHT22;19031;51.400;6.770;2023-08-07T03:51:06;13.40;99.90
32614;DHT22;19031;51.400;6.770;2023-08-07T03:53:36;13.30;99.90
32614;DHT22;19031;51.400;6.770;2023-08-07T03:56:02;13.30;99.90
32614;DHT22;19031;51.400;6.770;2023-08-07T03:58:27;13.30;99.90
32614;DHT22;19031;51.400;6.770;2023-08-07T04:00:56;13.20;99.90
32614;DHT22;19031;51.400;6.770;2023-08-07T04:03:22;13.30;99.90
32614;DHT22;19031;51.400;6.770;2023-08-07T04:05:52;13.30;99.90
32614;DHT22;19031;51.400;6.770;2023-08-07T04:08:22;13.40;99.90
32614;DHT22;19031;51.400;6.770;2023-08-07T04:11:02;13.30;99.90
32614;DHT22;19031;51.400;6.770;2023-08-07T04:13:28;13.30;99.90
32614;DHT22;19031;51.400;6.770;2023-08-07T04:15:54;13.30;99.90
32614;DHT22;19031;51.400;6.770;2023-08-07T04:18:34;13.30;99.90
32614;DHT22;19031;51.400;6.770;2023-08-07T04:21:00;13.40;99.90
32614;DHT22;19031;51.400;6.770;2023-08-07T04:23:26;13.30;99.90
32614;DHT22;19031;51.400;6.770;2023-08-07T04:25:52;13.20;99.90
32614;DHT22;19031;51.400;6.770;2023-08-07T04:28:18;13.30;99.90
32614;DHT22;19031;51.400;6.770;2023-08-07T04:30:50;13.30;99.90
32614;DHT22;19031;51.400;6.770;2023-08-07T04:33:16;13.40;99.90
32614;DHT22;19031;51.400;6.770;2023-08-07T04:35:42;13.40;99.90
32614;DHT22;19031;51.400;6.770;2023-08-07T04:38:10;13.40;99.90
32614;DHT22;19031;51.400;6.770;2023-08-07T04:40:36;13.40;99.90
32614;DHT22;19031;51.400;6.770;2023-08-07T04:43:01;13.40;99.90
32614;DHT22;19031;51.400;6.770;2023-08-07T04:45:35;13.40;99.90
32614;DHT22;19031;51.400;6.770;2023-08-07T04:48:02;13.40;99.90
32614;DHT22;19031;51.400;6.770;2023-08-07T04:50:29;13.40;99.90
32614;DHT22;19031;51.400;6.770;2023-08-07T04:52:55;13.50;99.90
32614;DHT22;19031;51.400;6.770;2023-08-07T04:55:20;13.40;99.90
32614;DHT22;19031;51.400;6.770;2023-08-07T04:57:46;13.40;99.90
32614;DHT22;19031;51.400;6.770;2023-08-07T05:00:12;13.30;99.90
32614;DHT22;19031;51.400;6.770;2023-08-07T05:02:42;13.40;99.90
32614;DHT22;19031;51.400;6.770;2023-08-07T05:05:07;13.30;99.90
32614;DHT22;19031;51.400;6.770;2023-08-07T05:07:35;13.40;99.90
32614;DHT22;19031;51.400;6.770;2023-08-07T05:10:02;13.30;99.90
32614;DHT22;19031;51.400;6.770;2023-08-07T05:12:30;13.30;99.90
32614;DHT22;19031;51.400;6.770;2023-08-07T05:14:55;13.30;99.90
32614;DHT22;19031;51.400;6.770;2023-08-07T05:17:21;13.30;99.90
32614;DHT22;19031;51.400;6.770;2023-08-07T05:19:47;13.30;99.90
32614;DHT22;19031;51.400;6.770;2023-08-07T05:22:13;13.30;99.90
32614;DHT22;19031;51.400;6.770;2023-08-07T05:24:38;13.30;99.90
32614;DHT22;19031;51.400;6.770;2023-08-07T05:27:10;13.20;99.90
32614;DHT22;19031;51.400;6.770;2023-08-07T05:29:36;13.30;99.90
32614;DHT22;19031;51.400;6.770;2023-08-07T05:32:09;13.30;99.90
32614;DHT22;19031;51.400;6.770;2023-08-07T05:34:35;13.30;99.90
32614;DHT22;19031;51.400;6.770;2023-08-07T05:37:10;13.30;99.90
32614;DHT22;19031;51.400;6.770;2023-08-07T05:39:44;13.20;99.90
32614;DHT22;19031;51.400;6.770;2023-08-07T05:42:10;13.10;99.90
32614;DHT22;19031;51.400;6.770;2023-08-07T05:44:43;13.20;99.90
32614;DHT22;19031;51.400;6.770;2023-08-07T05:47:11;13.20;99.90
32614;DHT22;19031;51.400;6.770;2023-08-07T05:49:37;13.10;99.90
32614;DHT22;19031;51.400;6.770;2023-08-07T05:52:03;13.10;99.90
32614;DHT22;19031;51.400;6.770;2023-08-07T05:54:31;13.20;99.90
32614;DHT22;19031;51.400;6.770;2023-08-07T05:56:57;13.20;99.90
32614;DHT22;19031;51.400;6.770;2023-08-07T05:59:23;13.20;99.90
32614;DHT22;19031;51.400;6.770;2023-08-07T06:01:48;13.20;99.90
32614;DHT22;19031;51.400;6.770;2023-08-07T06:04:27;13.40;99.90
32614;DHT22;19031;51.400;6.770;2023-08-07T06:07:28;13.70;99.90
32614;DHT22;19031;51.400;6.770;2023-08-07T06:09:57;13.30;99.90
32614;DHT22;19031;51.400;6.770;2023-08-07T06:12:23;13.30;99.90
32614;DHT22;19031;51.400;6.770;2023-08-07T06:14:54;13.30;99.90
32614;DHT22;19031;51.400;6.770;2023-08-07T06:17:20;13.30;99.90
32614;DHT22;19031;51.400;6.770;2023-08-07T06:19:45;13.50;99.90
32614;DHT22;19031;51.400;6.770;2023-08-07T06:22:11;13.80;99.90
32614;DHT22;19031;51.400;6.770;2023-08-07T06:24:36;13.40;99.90
32614;DHT22;19031;51.400;6.770;2023-08-07T06:27:08;13.40;99.90
32614;DHT22;19031;51.400;6.770;2023-08-07T06:29:36;13.50;99.90
32614;DHT22;19031;51.400;6.770;2023-08-07T06:32:02;13.50;99.90
32614;DHT22;19031;51.400;6.770;2023-08-07T06:34:31;13.60;99.90
32614;DHT22;19031;51.400;6.770;2023-08-07T06:36:57;13.60;99.90
32614;DHT22;19031;51.400;6.770;2023-08-07T06:39:22;13.60;99.90
32614;DHT22;19031;51.400;6.770;2023-08-07T06:41:51;13.60;99.90
32614;DHT22;19031;51.400;6.770;2023-08-07T06:44:16;13.60;99.90
32614;DHT22;19031;51.400;6.770;2023-08-07T06:46:42;13.60;99.90
32614;DHT22;19031;51.400;6.770;2023-08-07T06:49:07;13.60;99.90
32614;DHT22;19031;51.400;6.770;2023-08-07T06:51:33;13.60;99.90
32614;DHT22;19031;51.400;6.770;2023-08-07T06:53:58;13.50;99.90
32614;DHT22;19031;51.400;6.770;2023-08-07T06:56:27;13.50;99.90
32614;DHT22;19031;51.400;6.770;2023-08-07T06:58:52;13.60;99.90
32614;DHT22;19031;51.400;6.770;2023-08-07T07:01:18;13.60;99.90
32614;DHT22;19031;51.400;6.770;2023-08-07T07:03:46;13.60;99.90
32614;DHT22;19031;51.400;6.770;2023-08-07T07:06:17;13.60;99.90
32614;DHT22;19031;51.400;6.770;2023-08-07T07:08:43;13.60;99.90
32614;DHT22;19031;51.400;6.770;2023-08-07T07:11:08;13.60;99.90
32614;DHT22;19031;51.400;6.770;2023-08-07T07:13:37;13.70;99.90
32614;DHT22;19031;51.400;6.770;2023-08-07T07:16:03;13.60;99.90
32614;DHT22;19031;51.400;6.770;2023-08-07T07:18:28;13.70;99.90
32614;DHT22;19031;51.400;6.770;2023-08-07T07:20:57;13.70;99.90
32614;DHT22;19031;51.400;6.770;2023-08-07T07:23:24;13.60;99.90
32614;DHT22;19031;51.400;6.770;2023-08-07T07:25:49;13.60;99.90
32614;DHT22;19031;51.400;6.770;2023-08-07T07:28:15;13.70;99.90
32614;DHT22;19031;51.400;6.770;2023-08-07T07:30:41;13.70;99.90
32614;DHT22;19031;51.400;6.770;2023-08-07T07:33:06;13.60;99.90
32614;DHT22;19031;51.400;6.770;2023-08-07T07:35:32;13.60;99.90
32614;DHT22;19031;51.400;6.770;2023-08-07T07:37:58;13.70;99.90
32614;DHT22;19031;51.400;6.770;2023-08-07T07:40:23;13.70;99.90
32614;DHT22;19031;51.400;6.770;2023-08-07T07:42:52;13.70;99.90
32614;DHT22;19031;51.400;6.770;2023-08-07T07:45:17;13.70;99.90
32614;DHT22;19031;51.400;6.770;2023-08-07T07:47:43;13.60;99.90
32614;DHT22;19031;51.400;6.770;2023-08-07T07:50:12;13.70;99.90
32614;DHT22;19031;51.400;6.770;2023-08-07T07:52:38;13.60;99.90
32614;DHT22;19031;51.400;6.770;2023-08-07T07:55:07;13.60;99.90
32614;DHT22;19031;51.400;6.770;2023-08-07T07:57:37;13.70;99.90
32614;DHT22;19031;51.400;6.770;2023-08-07T08:00:03;14.00;99.90
32614;DHT22;19031;51.400;6.770;2023-08-07T08:02:41;14.10;99.90
32614;DHT22;19031;51.400;6.770;2023-08-07T08:05:08;14.20;99.90
32614;DHT22;19031;51.400;6.770;2023-08-07T08:07:39;14.20;99.90
32614;DHT22;19031;51.400;6.770;2023-08-07T08:10:08;14.30;99.90
32614;DHT22;19031;51.400;6.770;2023-08-07T08:12:34;14.40;99.90
32614;DHT22;19031;51.400;6.770;2023-08-07T08:15:03;14.50;99.90
32614;DHT22;19031;51.400;6.770;2023-08-07T08:17:29;14.70;99.90
32614;DHT22;19031;51.400;6.770;2023-08-07T08:19:55;14.80;99.90
32614;DHT22;19031;51.400;6.770;2023-08-07T08:22:20;14.80;99.90
32614;DHT22;19031;51.400;6.770;2023-08-07T08:24:46;14.70;99.90
32614;DHT22;19031;51.400;6.770;2023-08-07T08:27:13;14.80;99.90
32614;DHT22;19031;51.400;6.770;2023-08-07T08:29:38;15.10;99.90
32614;DHT22;19031;51.400;6.770;2023-08-07T08:32:07;15.00;99.90
32614;DHT22;19031;51.400;6.770;2023-08-07T08:34:32;15.10;99.90
32614;DHT22;19031;51.400;6.770;2023-08-07T08:36:58;15.20;99.90
32614;DHT22;19031;51.400;6.770;2023-08-07T08:39:27;15.30;99.90
32614;DHT22;19031;51.400;6.770;2023-08-07T08:41:53;15.30;99.90
32614;DHT22;19031;51.400;6.770;2023-08-07T08:44:19;15.30;99.90
32614;DHT22;19031;51.400;6.770;2023-08-07T08:46:52;15.60;99.90
32614;DHT22;19031;51.400;6.770;2023-08-07T08:49:30;15.70;99.90
32614;DHT22;19031;51.400;6.770;2023-08-07T08:51:58;15.90;99.90
32614;DHT22;19031;51.400;6.770;2023-08-07T08:54:24;16.10;99.90
32614;DHT22;19031;51.400;6.770;2023-08-07T08:56:51;16.20;99.90
32614;DHT22;19031;51.400;6.770;2023-08-07T08:59:17;16.40;99.90
32614;DHT22;19031;51.400;6.770;2023-08-07T09:01:47;16.60;99.90
32614;DHT22;19031;51.400;6.770;2023-08-07T09:04:16;16.60;99.90
32614;DHT22;19031;51.400;6.770;2023-08-07T09:06:43;16.80;99.90
32614;DHT22;19031;51.400;6.770;2023-08-07T09:09:08;16.60;99.90
32614;DHT22;19031;51.400;6.770;2023-08-07T09:11:36;16.70;99.90
32614;DHT22;19031;51.400;6.770;2023-08-07T09:14:02;16.60;99.90
32614;DHT22;19031;51.400;6.770;2023-08-07T09:16:34;16.50;99.90
32614;DHT22;19031;51.400;6.770;2023-08-07T09:21:55;16.40;99.90
32614;DHT22;19031;51.400;6.770;2023-08-07T09:24:26;16.30;99.90
32614;DHT22;19031;51.400;6.770;2023-08-07T09:26:55;16.30;99.90
32614;DHT22;19031;51.400;6.770;2023-08-07T09:29:21;16.20;99.90
32614;DHT22;19031;51.400;6.770;2023-08-07T09:31:47;16.00;99.90
32614;DHT22;19031;51.400;6.770;2023-08-07T09:34:13;15.90;99.90
32614;DHT22;19031;51.400;6.770;2023-08-07T09:36:42;15.80;99.90
32614;DHT22;19031;51.400;6.770;2023-08-07T09:39:08;15.70;99.90
32614;DHT22;19031;51.400;6.770;2023-08-07T09:41:33;15.50;99.90
32614;DHT22;19031;51.400;6.770;2023-08-07T09:44:09;15.80;99.90
32614;DHT22;19031;51.400;6.770;2023-08-07T09:46:43;16.00;99.90
32614;DHT22;19031;51.400;6.770;2023-08-07T09:49:11;16.00;99.90
32614;DHT22;19031;51.400;6.770;2023-08-07T09:51:44;16.30;99.90
32614;DHT22;19031;51.400;6.770;2023-08-07T09:54:10;16.30;99.90
32614;DHT22;19031;51.400;6.770;2023-08-07T09:56:37;16.60;99.90
32614;DHT22;19031;51.400;6.770;2023-08-07T09:59:03;16.90;99.90
32614;DHT22;19031;51.400;6.770;2023-08-07T10:01:29;17.00;99.90
32614;DHT22;19031;51.400;6.770;2023-08-07T10:03:55;17.20;99.90
32614;DHT22;19031;51.400;6.770;2023-08-07T10:06:21;17.80;99.90
32614;DHT22;19031;51.400;6.770;2023-08-07T10:08:48;18.20;99.90
32614;DHT22;19031;51.400;6.770;2023-08-07T10:11:14;18.60;99.90
32614;DHT22;19031;51.400;6.770;2023-08-07T10:13:40;19.10;99.90
32614;DHT22;19031;51.400;6.770;2023-08-07T10:16:07;19.50;99.90
32614;DHT22;19031;51.400;6.770;2023-08-07T10:18:35;19.80;99.90
32614;DHT22;19031;51.400;6.770;2023-08-07T10:21:02;20.20;99.90
32614;DHT22;19031;51.400;6.770;2023-08-07T10:23:27;20.10;99.90
32614;DHT22;19031;51.400;6.770;2023-08-07T10:25:54;19.90;99.90
32614;DHT22;19031;51.400;6.770;2023-08-07T10:28:27;19.90;99.90
32614;DHT22;19031;51.400;6.770;2023-08-07T10:30:54;20.10;99.90
32614;DHT22;19031;51.400;6.770;2023-08-07T10:33:20;20.10;99.90
32614;DHT22;19031;51.400;6.770;2023-08-07T10:35:47;20.00;99.90
32614;DHT22;19031;51.400;6.770;2023-08-07T10:38:14;19.90;99.90
32614;DHT22;19031;51.400;6.770;2023-08-07T10:41:14;19.70;99.90
32614;DHT22;19031;51.400;6.770;2023-08-07T10:43:43;19.40;99.90
32614;DHT22;19031;51.400;6.770;2023-08-07T10:46:11;19.20;99.90
32614;DHT22;19031;51.400;6.770;2023-08-07T10:48:46;18.80;99.90
32614;DHT22;19031;51.400;6.770;2023-08-07T10:51:17;18.30;99.90
32614;DHT22;19031;51.400;6.770;2023-08-07T10:53:43;17.90;99.90
32614;DHT22;19031;51.400;6.770;2023-08-07T10:56:31;17.60;99.90
32614;DHT22;19031;51.400;6.770;2023-08-07T10:58:57;17.50;99.90
32614;DHT22;19031;51.400;6.770;2023-08-07T11:01:43;17.30;99.90
32614;DHT22;19031;51.400;6.770;2023-08-07T11:04:11;17.40;99.90
32614;DHT22;19031;51.400;6.770;2023-08-07T11:06:38;18.10;99.90
32614;DHT22;19031;51.400;6.770;2023-08-07T11:09:05;18.80;99.90
32614;DHT22;19031;51.400;6.770;2023-08-07T11:11:43;19.60;99.90
32614;DHT22;19031;51.400;6.770;2023-08-07T11:14:11;20.40;99.90
32614;DHT22;19031;51.400;6.770;2023-08-07T11:16:38;21.10;99.90
32614;DHT22;19031;51.400;6.770;2023-08-07T11:19:05;21.30;99.90
32614;DHT22;19031;51.400;6.770;2023-08-07T11:21:31;21.30;99.90
32614;DHT22;19031;51.400;6.770;2023-08-07T11:23:57;20.90;99.90
32614;DHT22;19031;51.400;6.770;2023-08-07T11:26:23;20.70;99.90
32614;DHT22;19031;51.400;6.770;2023-08-07T11:28:51;20.70;99.90
32614;DHT22;19031;51.400;6.770;2023-08-07T11:31:18;20.30;99.90
32614;DHT22;19031;51.400;6.770;2023-08-07T11:33:44;19.80;99.90
32614;DHT22;19031;51.400;6.770;2023-08-07T11:36:14;19.90;99.90
32614;DHT22;19031;51.400;6.770;2023-08-07T11:38:41;19.70;99.90
32614;DHT22;19031;51.400;6.770;2023-08-07T11:41:11;19.50;99.90
32614;DHT22;19031;51.400;6.770;2023-08-07T11:43:38;19.50;99.90
32614;DHT22;19031;51.400;6.770;2023-08-07T11:46:05;19.70;99.90
32614;DHT22;19031;51.400;6.770;2023-08-07T11:48:34;20.40;99.90
32614;DHT22;19031;51.400;6.770;2023-08-07T11:51:00;21.10;99.90
32614;DHT22;19031;51.400;6.770;2023-08-07T11:53:29;21.80;99.90
32614;DHT22;19031;51.400;6.770;2023-08-07T11:56:08;22.00;99.90
32614;DHT22;19031;51.400;6.770;2023-08-07T12:01:12;21.20;99.90
32614;DHT22;19031;51.400;6.770;2023-08-07T12:03:41;20.70;99.90
32614;DHT22;19031;51.400;6.770;2023-08-07T12:06:08;20.60;99.90
32614;DHT22;19031;51.400;6.770;2023-08-07T12:08:39;20.70;99.90
32614;DHT22;19031;51.400;6.770;2023-08-07T12:11:07;21.10;99.90
32614;DHT22;19031;51.400;6.770;2023-08-07T12:13:40;21.50;99.90
32614;DHT22;19031;51.400;6.770;2023-08-07T12:16:06;21.60;99.90
32614;DHT22;19031;51.400;6.770;2023-08-07T12:18:32;22.00;99.90
32614;DHT22;19031;51.400;6.770;2023-08-07T12:21:00;22.50;99.90
32614;DHT22;19031;51.400;6.770;2023-08-07T12:23:26;22.60;99.90
32614;DHT22;19031;51.400;6.770;2023-08-07T12:25:52;22.30;99.90
32614;DHT22;19031;51.400;6.770;2023-08-07T12:28:18;22.30;99.90
32614;DHT22;19031;51.400;6.770;2023-08-07T12:30:45;21.90;99.90
32614;DHT22;19031;51.400;6.770;2023-08-07T12:33:11;21.80;99.90
32614;DHT22;19031;51.400;6.770;2023-08-07T12:35:37;21.60;99.90
32614;DHT22;19031;51.400;6.770;2023-08-07T12:38:02;21.50;99.90
32614;DHT22;19031;51.400;6.770;2023-08-07T12:40:32;21.90;99.90
32614;DHT22;19031;51.400;6.770;2023-08-07T12:43:00;22.10;99.90
32614;DHT22;19031;51.400;6.770;2023-08-07T12:45:26;22.00;99.90
32614;DHT22;19031;51.400;6.770;2023-08-07T12:47:52;21.80;99.60
32614;DHT22;19031;51.400;6.770;2023-08-07T12:50:17;21.60;99.90
32614;DHT22;19031;51.400;6.770;2023-08-07T12:52:43;21.60;99.90
32614;DHT22;19031;51.400;6.770;2023-08-07T12:55:09;21.60;99.90
32614;DHT22;19031;51.400;6.770;2023-08-07T12:57:35;20.80;99.90
32614;DHT22;19031;51.400;6.770;2023-08-07T13:00:00;20.90;99.90
32614;DHT22;19031;51.400;6.770;2023-08-07T13:02:26;21.20;99.90
32614;DHT22;19031;51.400;6.770;2023-08-07T13:04:52;21.50;99.90
32614;DHT22;19031;51.400;6.770;2023-08-07T13:07:18;22.10;99.90
32614;DHT22;19031;51.400;6.770;2023-08-07T13:09:44;22.40;98.90
32614;DHT22;19031;51.400;6.770;2023-08-07T13:12:09;22.80;98.00
32614;DHT22;19031;51.400;6.770;2023-08-07T13:14:35;23.00;97.90
32614;DHT22;19031;51.400;6.770;2023-08-07T13:17:01;23.20;97.80
32614;DHT22;19031;51.400;6.770;2023-08-07T13:19:26;23.40;96.20
32614;DHT22;19031;51.400;6.770;2023-08-07T13:21:52;23.30;96.80
32614;DHT22;19031;51.400;6.770;2023-08-07T13:24:18;23.80;97.30
32614;DHT22;19031;51.400;6.770;2023-08-07T13:26:43;23.80;94.00
32614;DHT22;19031;51.400;6.770;2023-08-07T13:29:12;23.90;93.70
32614;DHT22;19031;51.400;6.770;2023-08-07T13:31:38;24.00;94.70
32614;DHT22;19031;51.400;6.770;2023-08-07T13:34:04;24.10;92.70
32614;DHT22;19031;51.400;6.770;2023-08-07T13:36:36;23.50;94.10
32614;DHT22;19031;51.400;6.770;2023-08-07T13:39:06;23.40;94.20
32614;DHT22;19031;51.400;6.770;2023-08-07T13:41:32;23.40;93.40
32614;DHT22;19031;51.400;6.770;2023-08-07T13:43:58;23.70;94.20
32614;DHT22;19031;51.400;6.770;2023-08-07T13:46:25;24.10;92.00
32614;DHT22;19031;51.400;6.770;2023-08-07T13:48:50;24.30;92.90
32614;DHT22;19031;51.400;6.770;2023-08-07T13:51:16;24.40;92.20
32614;DHT22;19031;51.400;6.770;2023-08-07T13:53:43;24.80;94.20
32614;DHT22;19031;51.400;6.770;2023-08-07T13:56:08;25.20;93.20
32614;DHT22;19031;51.400;6.770;2023-08-07T13:58:36;25.20;92.20
32614;DHT22;19031;51.400;6.770;2023-08-07T14:01:02;25.10;90.40
32614;DHT22;19031;51.400;6.770;2023-08-07T14:03:29;24.40;90.40
32614;DHT22;19031;51.400;6.770;2023-08-07T14:05:55;24.30;91.70
32614;DHT22;19031;51.400;6.770;2023-08-07T14:08:21;24.40;87.70
32614;DHT22;19031;51.400;6.770;2023-08-07T14:10:46;24.30;87.30
32614;DHT22;19031;51.400;6.770;2023-08-07T14:13:12;24.40;86.90
32614;DHT22;19031;51.400;6.770;2023-08-07T14:15:37;24.40;87.70
32614;DHT22;19031;51.400;6.770;2023-08-07T14:18:03;24.70;87.30
32614;DHT22;19031;51.400;6.770;2023-08-07T14:20:29;25.00;86.60
32614;DHT22;19031;51.400;6.770;2023-08-07T14:22:54;25.40;89.40
32614;DHT22;19031;51.400;6.770;2023-08-07T14:25:20;24.90;80.00
32614;DHT22;19031;51.400;6.770;2023-08-07T14:27:48;24.20;79.20
32614;DHT22;19031;51.400;6.770;2023-08-07T14:30:14;23.60;84.70
32614;DHT22;19031;51.400;6.770;2023-08-07T14:32:40;23.00;82.60
32614;DHT22;19031;51.400;6.770;2023-08-07T14:35:07;22.70;83.00
32614;DHT22;19031;51.400;6.770;2023-08-07T14:37:33;23.10;87.60
32614;DHT22;19031;51.400;6.770;2023-08-07T14:39:59;23.20;88.40
32614;DHT22;19031;51.400;6.770;2023-08-07T14:42:24;23.50;87.30
32614;DHT22;19031;51.400;6.770;2023-08-07T14:44:50;23.50;87.40
32614;DHT22;19031;51.400;6.770;2023-08-07T14:47:15;23.60;85.70
32614;DHT22;19031;51.400;6.770;2023-08-07T14:49:41;23.90;84.90
32614;DHT22;19031;51.400;6.770;2023-08-07T14:52:06;24.20;85.40
32614;DHT22;19031;51.400;6.770;2023-08-07T14:54:33;24.10;83.00
32614;DHT22;19031;51.400;6.770;2023-08-07T14:56:58;23.30;82.60
32614;DHT22;19031;51.400;6.770;2023-08-07T14:59:25;22.60;85.00
32614;DHT22;19031;51.400;6.770;2023-08-07T15:01:50;22.50;87.40
32614;DHT22;19031;51.400;6.770;2023-08-07T15:04:16;22.80;87.80
32614;DHT22;19031;51.400;6.770;2023-08-07T15:06:42;22.50;89.10
32614;DHT22;19031;51.400;6.770;2023-08-07T15:09:08;22.40;91.20
32614;DHT22;19031;51.400;6.770;2023-08-07T15:11:34;22.00;90.90
32614;DHT22;19031;51.400;6.770;2023-08-07T15:14:00;21.80;91.60
32614;DHT22;19031;51.400;6.770;2023-08-07T15:16:27;21.50;93.30
32614;DHT22;19031;51.400;6.770;2023-08-07T15:18:52;21.50;93.70
32614;DHT22;19031;51.400;6.770;2023-08-07T15:21:18;21.60;95.70
32614;DHT22;19031;51.400;6.770;2023-08-07T15:23:44;21.70;95.70
32614;DHT22;19031;51.400;6.770;2023-08-07T15:26:10;21.80;94.40
32614;DHT22;19031;51.400;6.770;2023-08-07T15:28:35;22.00;95.00
32614;DHT22;19031;51.400;6.770;2023-08-07T15:31:01;21.50;94.70
32614;DHT22;19031;51.400;6.770;2023-08-07T15:33:27;21.40;96.10
32614;DHT22;19031;51.400;6.770;2023-08-07T15:35:56;21.50;97.00
32614;DHT22;19031;51.400;6.770;2023-08-07T15:38:25;21.30;97.10
32614;DHT22;19031;51.400;6.770;2023-08-07T15:40:51;21.20;97.40
32614;DHT22;19031;51.400;6.770;2023-08-07T15:43:17;21.00;98.50